sensor_id;sensor_type;location;lat;lon;timestamp;pressure;altitude;pressure_sealevel;temperature
70668;BMP280;58242;51.250;-1.118;2022-11-18T00:01:18;98042.31;;;13.78
70668;BMP280;58242;51.250;-1.118;2022-11-18T00:03:44;98038.53;;;13.79
70668;BMP280;58242;51.250;-1.118;2022-11-18T00:06:12;98042.31;;;13.78
70668;BMP280;58242;51.250;-1.118;2022-11-18T00:08:37;98045.00;;;13.78
70668;BMP280;58242;51.250;-1.118;2022-11-18T00:11:07;98046.94;;;13.78
70668;BMP280;58242;51.250;-1.118;2022-11-18T00:13:33;98054.22;;;13.77
70668;BMP280;58242;51.250;-1.118;2022-11-18T00:16:17;98046.94;;;13.78
70668;BMP280;58242;51.250;-1.118;2022-11-18T00:18:43;98059.59;;;13.77
70668;BMP280;58242;51.250;-1.118;2022-11-18T00:21:09;98061.13;;;13.78
70668;BMP280;58242;51.250;-1.118;2022-11-18T00:23:35;98063.03;;;13.78
70668;BMP280;58242;51.250;-1.118;2022-11-18T00:26:11;98063.81;;;13.78
70668;BMP280;58242;51.250;-1.118;2022-11-18T00:28:38;98066.09;;;13.76
70668;BMP280;58242;51.250;-1.118;2022-11-18T00:31:11;98071.09;;;13.78
70668;BMP280;58242;51.250;-1.118;2022-11-18T00:33:38;98066.88;;;13.77
70668;BMP280;58242;51.250;-1.118;2022-11-18T00:36:04;98065.31;;;13.76
70668;BMP280;58242;51.250;-1.118;2022-11-18T00:38:30;98069.19;;;13.75
70668;BMP280;58242;51.250;-1.118;2022-11-18T00:41:05;98068.03;;;13.72
70668;BMP280;58242;51.250;-1.118;2022-11-18T00:43:31;98072.28;;;13.70
70668;BMP280;58242;51.250;-1.118;2022-11-18T00:45:56;98091.84;;;13.70
70668;BMP280;58242;51.250;-1.118;2022-11-18T00:48:22;98088.00;;;13.71
70668;BMP280;58242;51.250;-1.118;2022-11-18T00:50:56;98090.69;;;13.71
70668;BMP280;58242;51.250;-1.118;2022-11-18T00:53:24;98119.81;;;13.69
70668;BMP280;58242;51.250;-1.118;2022-11-18T00:55:49;98111.00;;;13.69
70668;BMP280;58242;51.250;-1.118;2022-11-18T00:58:15;98120.97;;;13.68
70668;BMP280;58242;51.250;-1.118;2022-11-18T01:00:44;98116.00;;;13.67
70668;BMP280;58242;51.250;-1.118;2022-11-18T01:03:10;98128.28;;;13.58
70668;BMP280;58242;51.250;-1.118;2022-11-18T01:05:36;98135.56;;;13.61
70668;BMP280;58242;51.250;-1.118;2022-11-18T01:08:02;98137.88;;;13.59
70668;BMP280;58242;51.250;-1.118;2022-11-18T01:10:28;98142.13;;;13.56
70668;BMP280;58242;51.250;-1.118;2022-11-18T01:12:53;98144.78;;;13.53
70668;BMP280;58242;51.250;-1.118;2022-11-18T01:15:42;98147.88;;;13.48
70668;BMP280;58242;51.250;-1.118;2022-11-18T01:18:08;98155.53;;;13.46
70668;BMP280;58242;51.250;-1.118;2022-11-18T01:20:34;98142.91;;;13.43
70668;BMP280;58242;51.250;-1.118;2022-11-18T01:23:00;98152.09;;;13.39
70668;BMP280;58242;51.250;-1.118;2022-11-18T01:25:26;98152.09;;;13.35
70668;BMP280;58242;51.250;-1.118;2022-11-18T01:27:51;98145.19;;;13.34
70668;BMP280;58242;51.250;-1.118;2022-11-18T01:30:16;98150.19;;;13.33
70668;BMP280;58242;51.250;-1.118;2022-11-18T01:32:42;98145.97;;;13.32
70668;BMP280;58242;51.250;-1.118;2022-11-18T01:35:09;98155.56;;;13.29
70668;BMP280;58242;51.250;-1.118;2022-11-18T01:37:35;98151.34;;;13.28
70668;BMP280;58242;51.250;-1.118;2022-11-18T01:40:00;98151.34;;;13.25
70668;BMP280;58242;51.250;-1.118;2022-11-18T01:42:26;98154.81;;;13.22
70668;BMP280;58242;51.250;-1.118;2022-11-18T01:44:59;98159.00;;;13.19
70668;BMP280;58242;51.250;-1.118;2022-11-18T01:47:29;98162.88;;;13.15
70668;BMP280;58242;51.250;-1.118;2022-11-18T01:49:55;98170.91;;;13.15
70668;BMP280;58242;51.250;-1.118;2022-11-18T01:52:22;98171.66;;;13.12
70668;BMP280;58242;51.250;-1.118;2022-11-18T01:54:50;98168.59;;;13.10
70668;BMP280;58242;51.250;-1.118;2022-11-18T01:57:19;98175.13;;;13.09
70668;BMP280;58242;51.250;-1.118;2022-11-18T01:59:48;98175.88;;;13.06
70668;BMP280;58242;51.250;-1.118;2022-11-18T02:02:14;98182.03;;;13.03
70668;BMP280;58242;51.250;-1.118;2022-11-18T02:04:42;98182.78;;;13.04
70668;BMP280;58242;51.250;-1.118;2022-11-18T02:07:09;98187.75;;;13.02
70668;BMP280;58242;51.250;-1.118;2022-11-18T02:09:36;98179.72;;;12.99
70668;BMP280;58242;51.250;-1.118;2022-11-18T02:12:02;98187.34;;;12.97
70668;BMP280;58242;51.250;-1.118;2022-11-18T02:14:42;98186.22;;;12.94
70668;BMP280;58242;51.250;-1.118;2022-11-18T02:17:42;98189.28;;;12.93
70668;BMP280;58242;51.250;-1.118;2022-11-18T02:31:05;98205.75;;;12.81
70668;BMP280;58242;51.250;-1.118;2022-11-18T02:33:37;98209.94;;;12.82
70668;BMP280;58242;51.250;-1.118;2022-11-18T02:36:39;98216.47;;;12.81
70668;BMP280;58242;51.250;-1.118;2022-11-18T02:39:16;98229.47;;;12.79
70668;BMP280;58242;51.250;-1.118;2022-11-18T02:41:46;98232.94;;;12.80
70668;BMP280;58242;51.250;-1.118;2022-11-18T02:44:18;98231.03;;;12.80
70668;BMP280;58242;51.250;-1.118;2022-11-18T02:46:50;98239.06;;;12.80
70668;BMP280;58242;51.250;-1.118;2022-11-18T02:49:39;98237.16;;;12.77
70668;BMP280;58242;51.250;-1.118;2022-11-18T02:52:07;98241.75;;;12.77
70668;BMP280;58242;51.250;-1.118;2022-11-18T02:54:35;98246.69;;;12.78
70668;BMP280;58242;51.250;-1.118;2022-11-18T02:57:03;98247.88;;;12.77
70668;BMP280;58242;51.250;-1.118;2022-11-18T02:59:28;98247.88;;;12.77
70668;BMP280;58242;51.250;-1.118;2022-11-18T03:01:54;98256.66;;;12.78
70668;BMP280;58242;51.250;-1.118;2022-11-18T03:04:20;98259.75;;;12.80
70668;BMP280;58242;51.250;-1.118;2022-11-18T03:07:19;98254.75;;;12.78
70668;BMP280;58242;51.250;-1.118;2022-11-18T03:09:50;98257.06;;;12.76
70668;BMP280;58242;51.250;-1.118;2022-11-18T03:15:43;98276.94;;;12.75
70668;BMP280;58242;51.250;-1.118;2022-11-18T03:18:19;98278.88;;;12.75
70668;BMP280;58242;51.250;-1.118;2022-11-18T03:20:55;98272.38;;;12.76
70668;BMP280;58242;51.250;-1.118;2022-11-18T03:23:37;98280.41;;;12.76
70668;BMP280;58242;51.250;-1.118;2022-11-18T03:26:13;98271.59;;;12.75
70668;BMP280;58242;51.250;-1.118;2022-11-18T03:33:56;98283.84;;;12.73
70668;BMP280;58242;51.250;-1.118;2022-11-18T03:36:26;98291.88;;;12.73
70668;BMP280;58242;51.250;-1.118;2022-11-18T03:38:55;98280.00;;;12.70
70668;BMP280;58242;51.250;-1.118;2022-11-18T03:41:23;98289.97;;;12.70
70668;BMP280;58242;51.250;-1.118;2022-11-18T03:43:55;98289.97;;;12.70
70668;BMP280;58242;51.250;-1.118;2022-11-18T03:46:27;98294.94;;;12.68
70668;BMP280;58242;51.250;-1.118;2022-11-18T03:48:55;98299.88;;;12.63
70668;BMP280;58242;51.250;-1.118;2022-11-18T03:51:31;98298.38;;;12.62
70668;BMP280;58242;51.250;-1.118;2022-11-18T03:54:02;98307.53;;;12.61
70668;BMP280;58242;51.250;-1.118;2022-11-18T03:56:33;98313.25;;;12.59
70668;BMP280;58242;51.250;-1.118;2022-11-18T03:59:17;98312.09;;;12.57
70668;BMP280;58242;51.250;-1.118;2022-11-18T04:01:57;98315.91;;;12.56
70668;BMP280;58242;51.250;-1.118;2022-11-18T04:04:25;98322.78;;;12.53
70668;BMP280;58242;51.250;-1.118;2022-11-18T04:07:01;98323.94;;;12.52
70668;BMP280;58242;51.250;-1.118;2022-11-18T04:09:45;98322.00;;;12.49
70668;BMP280;58242;51.250;-1.118;2022-11-18T04:12:13;98330.81;;;12.47
70668;BMP280;58242;51.250;-1.118;2022-11-18T04:14:41;98333.06;;;12.45
70668;BMP280;58242;51.250;-1.118;2022-11-18T04:17:13;98338.81;;;12.43
70668;BMP280;58242;51.250;-1.118;2022-11-18T04:19:39;98339.56;;;12.40
70668;BMP280;58242;51.250;-1.118;2022-11-18T04:22:05;98351.44;;;12.39
70668;BMP280;58242;51.250;-1.118;2022-11-18T04:24:30;98348.75;;;12.39
70668;BMP280;58242;51.250;-1.118;2022-11-18T04:26:56;98349.13;;;12.38
70668;BMP280;58242;51.250;-1.118;2022-11-18T04:29:21;98354.47;;;12.38
70668;BMP280;58242;51.250;-1.118;2022-11-18T04:31:46;98354.84;;;12.36
70668;BMP280;58242;51.250;-1.118;2022-11-18T04:34:12;98365.19;;;12.34
70668;BMP280;58242;51.250;-1.118;2022-11-18T04:36:38;98366.31;;;12.33
70668;BMP280;58242;51.250;-1.118;2022-11-18T04:39:04;98373.97;;;12.31
70668;BMP280;58242;51.250;-1.118;2022-11-18T04:41:29;98369.34;;;12.29
70668;BMP280;58242;51.250;-1.118;2022-11-18T04:44:13;98363.59;;;12.27
70668;BMP280;58242;51.250;-1.118;2022-11-18T04:46:42;98378.88;;;12.26
70668;BMP280;58242;51.250;-1.118;2022-11-18T04:49:08;98384.19;;;12.16
70668;BMP280;58242;51.250;-1.118;2022-11-18T04:51:34;98380.75;;;12.19
70668;BMP280;58242;51.250;-1.118;2022-11-18T04:53:59;98387.66;;;12.20
70668;BMP280;58242;51.250;-1.118;2022-11-18T04:56:24;98389.19;;;12.21
70668;BMP280;58242;51.250;-1.118;2022-11-18T04:58:50;98392.25;;;12.19
70668;BMP280;58242;51.250;-1.118;2022-11-18T05:01:15;98394.50;;;12.17
70668;BMP280;58242;51.250;-1.118;2022-11-18T05:03:40;98394.50;;;12.17
70668;BMP280;58242;51.250;-1.118;2022-11-18T05:06:06;98388.00;;;12.15
70668;BMP280;58242;51.250;-1.118;2022-11-18T05:08:31;98396.03;;;12.15
70668;BMP280;58242;51.250;-1.118;2022-11-18T05:10:56;98401.38;;;12.15
70668;BMP280;58242;51.250;-1.118;2022-11-18T05:13:41;98409.41;;;12.15
70668;BMP280;58242;51.250;-1.118;2022-11-18T05:16:07;98405.97;;;12.14
70668;BMP280;58242;51.250;-1.118;2022-11-18T05:18:32;98409.41;;;12.15
70668;BMP280;58242;51.250;-1.118;2022-11-18T05:20:58;98412.09;;;12.15
70668;BMP280;58242;51.250;-1.118;2022-11-18T05:23:23;98414.78;;;12.15
70668;BMP280;58242;51.250;-1.118;2022-11-18T05:25:48;98414.41;;;12.13
70668;BMP280;58242;51.250;-1.118;2022-11-18T05:28:14;98415.53;;;12.12
70668;BMP280;58242;51.250;-1.118;2022-11-18T05:30:39;98415.53;;;12.12
70668;BMP280;58242;51.250;-1.118;2022-11-18T05:33:04;98422.00;;;12.11
70668;BMP280;58242;51.250;-1.118;2022-11-18T05:35:30;98424.69;;;12.11
70668;BMP280;58242;51.250;-1.118;2022-11-18T05:37:55;98422.75;;;12.08
70668;BMP280;58242;51.250;-1.118;2022-11-18T05:40:20;98420.44;;;12.07
70668;BMP280;58242;51.250;-1.118;2022-11-18T05:42:45;98428.47;;;12.07
70668;BMP280;58242;51.250;-1.118;2022-11-18T05:45:29;98420.41;;;12.03
70668;BMP280;58242;51.250;-1.118;2022-11-18T05:47:55;98421.56;;;12.02
70668;BMP280;58242;51.250;-1.118;2022-11-18T05:50:29;98430.00;;;12.04
70668;BMP280;58242;51.250;-1.118;2022-11-18T05:52:54;98432.69;;;12.04
70668;BMP280;58242;51.250;-1.118;2022-11-18T05:55:21;98440.72;;;12.04
70668;BMP280;58242;51.250;-1.118;2022-11-18T05:57:48;98436.47;;;12.03
70668;BMP280;58242;51.250;-1.118;2022-11-18T06:00:14;98447.19;;;12.03
70668;BMP280;58242;51.250;-1.118;2022-11-18T06:02:41;98451.00;;;12.02
70668;BMP280;58242;51.250;-1.118;2022-11-18T06:05:08;98456.34;;;12.02
70668;BMP280;58242;51.250;-1.118;2022-11-18T06:07:41;98462.09;;;12.01
70668;BMP280;58242;51.250;-1.118;2022-11-18T06:10:09;98459.00;;;11.99
70668;BMP280;58242;51.250;-1.118;2022-11-18T06:12:39;98458.63;;;11.97
70668;BMP280;58242;51.250;-1.118;2022-11-18T06:15:16;98478.16;;;11.97
70668;BMP280;58242;51.250;-1.118;2022-11-18T06:17:55;98475.03;;;11.96
70668;BMP280;58242;51.250;-1.118;2022-11-18T06:20:22;98480.38;;;11.92
70668;BMP280;58242;51.250;-1.118;2022-11-18T06:22:50;98480.78;;;11.94
70668;BMP280;58242;51.250;-1.118;2022-11-18T06:25:17;98492.63;;;11.93
70668;BMP280;58242;51.250;-1.118;2022-11-18T06:27:43;98494.94;;;11.95
70668;BMP280;58242;51.250;-1.118;2022-11-18T06:30:09;98494.19;;;11.94
70668;BMP280;58242;51.250;-1.118;2022-11-18T06:32:34;98504.13;;;11.94
70668;BMP280;58242;51.250;-1.118;2022-11-18T06:34:59;98511.38;;;11.93
70668;BMP280;58242;51.250;-1.118;2022-11-18T06:37:25;98509.03;;;11.92
70668;BMP280;58242;51.250;-1.118;2022-11-18T06:39:50;98505.97;;;11.90
70668;BMP280;58242;51.250;-1.118;2022-11-18T06:42:15;98527.41;;;11.90
70668;BMP280;58242;51.250;-1.118;2022-11-18T06:45:02;98525.09;;;11.88
70668;BMP280;58242;51.250;-1.118;2022-11-18T06:47:27;98531.94;;;11.86
70668;BMP280;58242;51.250;-1.118;2022-11-18T06:49:52;98543.00;;;11.84
70668;BMP280;58242;51.250;-1.118;2022-11-18T06:52:18;98541.84;;;11.82
70668;BMP280;58242;51.250;-1.118;2022-11-18T06:54:43;98544.09;;;11.80
70668;BMP280;58242;51.250;-1.118;2022-11-18T06:57:08;98547.94;;;11.79
70668;BMP280;58242;51.250;-1.118;2022-11-18T06:59:34;98563.22;;;11.79
70668;BMP280;58242;51.250;-1.118;2022-11-18T07:01:59;98567.38;;;11.76
70668;BMP280;58242;51.250;-1.118;2022-11-18T07:04:24;98574.66;;;11.76
70668;BMP280;58242;51.250;-1.118;2022-11-18T07:06:49;98583.81;;;11.75
70668;BMP280;58242;51.250;-1.118;2022-11-18T07:09:15;98583.06;;;11.74
70668;BMP280;58242;51.250;-1.118;2022-11-18T07:11:41;98592.22;;;11.73
70668;BMP280;58242;51.250;-1.118;2022-11-18T07:14:07;98596.44;;;11.74
70668;BMP280;58242;51.250;-1.118;2022-11-18T07:16:34;98599.88;;;11.75
70668;BMP280;58242;51.250;-1.118;2022-11-18T07:19:00;98614.75;;;11.72
70668;BMP280;58242;51.250;-1.118;2022-11-18T07:21:27;98615.91;;;11.71
70668;BMP280;58242;51.250;-1.118;2022-11-18T07:23:54;98621.25;;;11.71
70668;BMP280;58242;51.250;-1.118;2022-11-18T07:26:20;98636.53;;;11.71
70668;BMP280;58242;51.250;-1.118;2022-11-18T07:28:47;98633.47;;;11.72
70668;BMP280;58242;51.250;-1.118;2022-11-18T07:31:14;98633.47;;;11.72
70668;BMP280;58242;51.250;-1.118;2022-11-18T07:33:41;98637.72;;;11.73
70668;BMP280;58242;51.250;-1.118;2022-11-18T07:36:07;98645.75;;;11.73
70668;BMP280;58242;51.250;-1.118;2022-11-18T07:38:33;98648.06;;;11.75
70668;BMP280;58242;51.250;-1.118;2022-11-18T07:41:10;98647.28;;;11.74
70668;BMP280;58242;51.250;-1.118;2022-11-18T07:43:36;98653.78;;;11.73
70668;BMP280;58242;51.250;-1.118;2022-11-18T07:46:09;98658.00;;;11.74
70668;BMP280;58242;51.250;-1.118;2022-11-18T07:48:34;98667.16;;;11.73
70668;BMP280;58242;51.250;-1.118;2022-11-18T07:51:00;98664.47;;;11.73
70668;BMP280;58242;51.250;-1.118;2022-11-18T07:53:25;98671.38;;;11.74
70668;BMP280;58242;51.250;-1.118;2022-11-18T07:55:50;98672.56;;;11.77
70668;BMP280;58242;51.250;-1.118;2022-11-18T07:58:16;98678.69;;;11.77
70668;BMP280;58242;51.250;-1.118;2022-11-18T08:00:41;98688.25;;;11.78
70668;BMP280;58242;51.250;-1.118;2022-11-18T08:03:06;98682.91;;;11.78
70668;BMP280;58242;51.250;-1.118;2022-11-18T08:05:31;98691.31;;;11.80
70668;BMP280;58242;51.250;-1.118;2022-11-18T08:07:57;98697.88;;;11.82
70668;BMP280;58242;51.250;-1.118;2022-11-18T08:10:22;98698.69;;;11.86
70668;BMP280;58242;51.250;-1.118;2022-11-18T08:12:48;98714.50;;;11.95
70668;BMP280;58242;51.250;-1.118;2022-11-18T08:15:14;98718.03;;;12.02
70668;BMP280;58242;51.250;-1.118;2022-11-18T08:17:39;98720.75;;;12.05
70668;BMP280;58242;51.250;-1.118;2022-11-18T08:20:05;98719.66;;;12.10
70668;BMP280;58242;51.250;-1.118;2022-11-18T08:22:30;98726.59;;;12.14
70668;BMP280;58242;51.250;-1.118;2022-11-18T08:24:55;98723.94;;;12.17
70668;BMP280;58242;51.250;-1.118;2022-11-18T08:27:21;98723.59;;;12.19
70668;BMP280;58242;51.250;-1.118;2022-11-18T08:29:46;98731.28;;;12.20
70668;BMP280;58242;51.250;-1.118;2022-11-18T08:32:11;98736.25;;;12.22
70668;BMP280;58242;51.250;-1.118;2022-11-18T08:34:37;98734.38;;;12.26
70668;BMP280;58242;51.250;-1.118;2022-11-18T08:37:02;98745.97;;;12.33
70668;BMP280;58242;51.250;-1.118;2022-11-18T08:39:27;98752.97;;;12.44
70668;BMP280;58242;51.250;-1.118;2022-11-18T08:41:53;98755.03;;;12.54
70668;BMP280;58242;51.250;-1.118;2022-11-18T08:44:18;98753.25;;;12.65
70668;BMP280;58242;51.250;-1.118;2022-11-18T08:46:44;98752.59;;;12.74
70668;BMP280;58242;51.250;-1.118;2022-11-18T08:49:12;98763.03;;;12.82
70668;BMP280;58242;51.250;-1.118;2022-11-18T08:51:37;98763.13;;;12.93
70668;BMP280;58242;51.250;-1.118;2022-11-18T08:54:03;98762.06;;;13.00
70668;BMP280;58242;51.250;-1.118;2022-11-18T08:56:28;98777.03;;;13.05
70668;BMP280;58242;51.250;-1.118;2022-11-18T08:58:54;98775.19;;;13.12
70668;BMP280;58242;51.250;-1.118;2022-11-18T09:01:20;98775.28;;;13.19
70668;BMP280;58242;51.250;-1.118;2022-11-18T09:03:46;98776.88;;;13.27
70668;BMP280;58242;51.250;-1.118;2022-11-18T09:06:15;98779.59;;;13.30
70668;BMP280;58242;51.250;-1.118;2022-11-18T09:08:42;98777.28;;;13.29
70668;BMP280;58242;51.250;-1.118;2022-11-18T09:11:15;98786.47;;;13.28
70668;BMP280;58242;51.250;-1.118;2022-11-18T09:13:41;98784.53;;;13.25
70668;BMP280;58242;51.250;-1.118;2022-11-18T09:16:07;98794.47;;;13.24
70668;BMP280;58242;51.250;-1.118;2022-11-18T09:18:33;98792.94;;;13.23
70668;BMP280;58242;51.250;-1.118;2022-11-18T09:21:04;98803.66;;;13.23
70668;BMP280;58242;51.250;-1.118;2022-11-18T09:23:30;98809.03;;;13.23
70668;BMP280;58242;51.250;-1.118;2022-11-18T09:25:58;98817.06;;;13.20
70668;BMP280;58242;51.250;-1.118;2022-11-18T09:28:23;98815.13;;;13.17
70668;BMP280;58242;51.250;-1.118;2022-11-18T09:30:48;98823.94;;;13.17
70668;BMP280;58242;51.250;-1.118;2022-11-18T09:33:14;98819.38;;;13.21
70668;BMP280;58242;51.250;-1.118;2022-11-18T09:35:43;98830.53;;;13.27
70668;BMP280;58242;51.250;-1.118;2022-11-18T09:38:08;98832.88;;;13.32
70668;BMP280;58242;51.250;-1.118;2022-11-18T09:40:43;98823.75;;;13.39
70668;BMP280;58242;51.250;-1.118;2022-11-18T09:43:20;98839.59;;;13.51
70668;BMP280;58242;51.250;-1.118;2022-11-18T09:45:55;98842.47;;;13.71
70668;BMP280;58242;51.250;-1.118;2022-11-18T09:48:27;98836.59;;;14.02
70668;BMP280;58242;51.250;-1.118;2022-11-18T09:51:12;98835.72;;;14.47
70668;BMP280;58242;51.250;-1.118;2022-11-18T09:53:40;98838.28;;;15.06
70668;BMP280;58242;51.250;-1.118;2022-11-18T09:56:13;98843.38;;;15.79
70668;BMP280;58242;51.250;-1.118;2022-11-18T09:58:39;98846.38;;;16.49
70668;BMP280;58242;51.250;-1.118;2022-11-18T10:01:13;98842.56;;;17.30
70668;BMP280;58242;51.250;-1.118;2022-11-18T10:03:40;98842.81;;;18.09
70668;BMP280;58242;51.250;-1.118;2022-11-18T10:08:43;98847.91;;;19.63
70668;BMP280;58242;51.250;-1.118;2022-11-18T10:19:36;98868.84;;;20.74
70668;BMP280;58242;51.250;-1.118;2022-11-18T10:24:56;98874.16;;;19.91
70668;BMP280;58242;51.250;-1.118;2022-11-18T10:27:26;98881.72;;;19.55
70668;BMP280;58242;51.250;-1.118;2022-11-18T10:29:57;98878.78;;;19.14
70668;BMP280;58242;51.250;-1.118;2022-11-18T10:32:25;98881.97;;;18.73
70668;BMP280;58242;51.250;-1.118;2022-11-18T10:34:53;98893.53;;;18.37
70668;BMP280;58242;51.250;-1.118;2022-11-18T10:37:31;98894.22;;;18.02
70668;BMP280;58242;51.250;-1.118;2022-11-18T10:39:59;98898.28;;;17.74
70668;BMP280;58242;51.250;-1.118;2022-11-18T10:44:54;98897.34;;;17.37
70668;BMP280;58242;51.250;-1.118;2022-11-18T10:49:52;98901.34;;;17.06
70668;BMP280;58242;51.250;-1.118;2022-11-18T10:52:18;98902.56;;;16.88
70668;BMP280;58242;51.250;-1.118;2022-11-18T10:54:44;98900.28;;;16.73
70668;BMP280;58242;51.250;-1.118;2022-11-18T10:57:35;98902.66;;;16.54
70668;BMP280;58242;51.250;-1.118;2022-11-18T11:02:58;98904.22;;;16.27
70668;BMP280;58242;51.250;-1.118;2022-11-18T11:05:24;98903.06;;;16.18
70668;BMP280;58242;51.250;-1.118;2022-11-18T11:08:12;98908.84;;;16.13
70668;BMP280;58242;51.250;-1.118;2022-11-18T11:10:53;98900.38;;;16.11
70668;BMP280;58242;51.250;-1.118;2022-11-18T11:13:20;98904.22;;;16.10
70668;BMP280;58242;51.250;-1.118;2022-11-18T11:15:47;98905.00;;;16.11
70668;BMP280;58242;51.250;-1.118;2022-11-18T11:18:23;98903.84;;;16.09
70668;BMP280;58242;51.250;-1.118;2022-11-18T11:23:37;98913.81;;;15.88
70668;BMP280;58242;51.250;-1.118;2022-11-18T11:28:51;98919.19;;;15.91
70668;BMP280;58242;51.250;-1.118;2022-11-18T11:34:10;98930.38;;;15.86
70668;BMP280;58242;51.250;-1.118;2022-11-18T11:36:54;98931.13;;;15.87
70668;BMP280;58242;51.250;-1.118;2022-11-18T11:42:25;98925.00;;;15.90
70668;BMP280;58242;51.250;-1.118;2022-11-18T11:50:37;98936.56;;;16.04
70668;BMP280;58242;51.250;-1.118;2022-11-18T11:56:54;98935.03;;;16.23
70668;BMP280;58242;51.250;-1.118;2022-11-18T11:59:24;98940.41;;;16.33
70668;BMP280;58242;51.250;-1.118;2022-11-18T12:02:17;98944.25;;;16.36
70668;BMP280;58242;51.250;-1.118;2022-11-18T12:04:52;98951.97;;;16.41
70668;BMP280;58242;51.250;-1.118;2022-11-18T12:07:28;98948.91;;;16.42
70668;BMP280;58242;51.250;-1.118;2022-11-18T12:18:41;98961.94;;;16.77
70668;BMP280;58242;51.250;-1.118;2022-11-18T12:21:07;98956.56;;;16.91
70668;BMP280;58242;51.250;-1.118;2022-11-18T12:23:32;98974.25;;;17.06
70668;BMP280;58242;51.250;-1.118;2022-11-18T12:26:07;98968.03;;;17.22
70668;BMP280;58242;51.250;-1.118;2022-11-18T12:28:41;98972.56;;;17.39
70668;BMP280;58242;51.250;-1.118;2022-11-18T12:33:47;98974.84;;;17.50
70668;BMP280;58242;51.250;-1.118;2022-11-18T12:36:43;98981.75;;;17.58
70668;BMP280;58242;51.250;-1.118;2022-11-18T12:44:39;98970.06;;;17.78
70668;BMP280;58242;51.250;-1.118;2022-11-18T12:47:09;98977.78;;;17.83
70668;BMP280;58242;51.250;-1.118;2022-11-18T12:52:02;98990.84;;;17.91
70668;BMP280;58242;51.250;-1.118;2022-11-18T12:54:31;98988.84;;;18.02
70668;BMP280;58242;51.250;-1.118;2022-11-18T12:57:01;98992.66;;;18.11
70668;BMP280;58242;51.250;-1.118;2022-11-18T12:59:33;98999.19;;;18.17
70668;BMP280;58242;51.250;-1.118;2022-11-18T13:02:26;98999.94;;;18.17
70668;BMP280;58242;51.250;-1.118;2022-11-18T13:07:31;99002.28;;;18.15
70668;BMP280;58242;51.250;-1.118;2022-11-18T13:10:22;99003.09;;;18.13
70668;BMP280;58242;51.250;-1.118;2022-11-18T13:12:48;99006.56;;;18.10
70668;BMP280;58242;51.250;-1.118;2022-11-18T13:15:14;99004.31;;;18.05
70668;BMP280;58242;51.250;-1.118;2022-11-18T13:18:13;99012.06;;;17.99
70668;BMP280;58242;51.250;-1.118;2022-11-18T13:20:40;99016.31;;;17.97
70668;BMP280;58242;51.250;-1.118;2022-11-18T13:25:54;99032.97;;;17.89
70668;BMP280;58242;51.250;-1.118;2022-11-18T13:33:37;99028.00;;;17.81
70668;BMP280;58242;51.250;-1.118;2022-11-18T13:36:15;99031.09;;;17.82
70668;BMP280;58242;51.250;-1.118;2022-11-18T13:38:54;99036.50;;;17.82
70668;BMP280;58242;51.250;-1.118;2022-11-18T13:41:20;99037.22;;;17.80
70668;BMP280;58242;51.250;-1.118;2022-11-18T13:43:48;99036.47;;;17.76
70668;BMP280;58242;51.250;-1.118;2022-11-18T13:46:18;99043.47;;;17.70
70668;BMP280;58242;51.250;-1.118;2022-11-18T13:48:55;99038.88;;;17.63
70668;BMP280;58242;51.250;-1.118;2022-11-18T13:51:23;99045.81;;;17.58
70668;BMP280;58242;51.250;-1.118;2022-11-18T13:53:49;99048.56;;;17.51
70668;BMP280;58242;51.250;-1.118;2022-11-18T13:56:24;99056.28;;;17.46
70668;BMP280;58242;51.250;-1.118;2022-11-18T13:58:52;99058.22;;;17.42
70668;BMP280;58242;51.250;-1.118;2022-11-18T14:03:51;99071.38;;;17.26
70668;BMP280;58242;51.250;-1.118;2022-11-18T14:06:24;99072.16;;;17.23
70668;BMP280;58242;51.250;-1.118;2022-11-18T14:08:50;99070.63;;;17.19
70668;BMP280;58242;51.250;-1.118;2022-11-18T14:11:42;99069.88;;;17.15
70668;BMP280;58242;51.250;-1.118;2022-11-18T14:14:14;99071.81;;;17.14
70668;BMP280;58242;51.250;-1.118;2022-11-18T14:16:51;99081.44;;;17.12
70668;BMP280;58242;51.250;-1.118;2022-11-18T14:19:28;99074.91;;;17.10
70668;BMP280;58242;51.250;-1.118;2022-11-18T14:22:03;99076.84;;;17.06
70668;BMP280;58242;51.250;-1.118;2022-11-18T14:24:29;99077.63;;;17.03
70668;BMP280;58242;51.250;-1.118;2022-11-18T14:26:54;99070.69;;;17.02
70668;BMP280;58242;51.250;-1.118;2022-11-18T14:29:19;99071.44;;;17.02
70668;BMP280;58242;51.250;-1.118;2022-11-18T14:32:24;99081.84;;;17.04
70668;BMP280;58242;51.250;-1.118;2022-11-18T14:34:59;99084.94;;;17.09
70668;BMP280;58242;51.250;-1.118;2022-11-18T14:37:25;99089.97;;;17.11
70668;BMP280;58242;51.250;-1.118;2022-11-18T14:39:56;99091.88;;;17.10
70668;BMP280;58242;51.250;-1.118;2022-11-18T14:42:23;99104.59;;;17.10
70668;BMP280;58242;51.250;-1.118;2022-11-18T14:44:49;99092.25;;;17.09
70668;BMP280;58242;51.250;-1.118;2022-11-18T14:47:21;99110.38;;;17.12
70668;BMP280;58242;51.250;-1.118;2022-11-18T14:49:47;99107.31;;;17.13
70668;BMP280;58242;51.250;-1.118;2022-11-18T14:52:12;99115.41;;;17.16
70668;BMP280;58242;51.250;-1.118;2022-11-18T14:54:37;99113.47;;;17.17
70668;BMP280;58242;51.250;-1.118;2022-11-18T14:57:03;99117.31;;;17.16
70668;BMP280;58242;51.250;-1.118;2022-11-18T14:59:29;99130.47;;;17.14
70668;BMP280;58242;51.250;-1.118;2022-11-18T15:01:55;99127.75;;;17.14
70668;BMP280;58242;51.250;-1.118;2022-11-18T15:04:21;99126.97;;;17.13
70668;BMP280;58242;51.250;-1.118;2022-11-18T15:06:46;99143.97;;;17.11
70668;BMP280;58242;51.250;-1.118;2022-11-18T15:09:12;99137.00;;;17.10
70668;BMP280;58242;51.250;-1.118;2022-11-18T15:11:38;99140.88;;;17.09
70668;BMP280;58242;51.250;-1.118;2022-11-18T15:14:03;99143.19;;;17.07
70668;BMP280;58242;51.250;-1.118;2022-11-18T15:16:30;99144.34;;;17.06
70668;BMP280;58242;51.250;-1.118;2022-11-18T15:18:58;99143.97;;;17.07
70668;BMP280;58242;51.250;-1.118;2022-11-18T15:21:24;99142.78;;;17.08
70668;BMP280;58242;51.250;-1.118;2022-11-18T15:23:50;99150.88;;;17.08
70668;BMP280;58242;51.250;-1.118;2022-11-18T15:28:41;99160.53;;;17.06
70668;BMP280;58242;51.250;-1.118;2022-11-18T15:31:06;99156.28;;;17.05
70668;BMP280;58242;51.250;-1.118;2022-11-18T15:33:32;99161.69;;;17.05
70668;BMP280;58242;51.250;-1.118;2022-11-18T15:35:57;99162.47;;;17.05
70668;BMP280;58242;51.250;-1.118;2022-11-18T15:38:22;99164.03;;;17.03
70668;BMP280;58242;51.250;-1.118;2022-11-18T15:40:48;99168.25;;;17.00
70668;BMP280;58242;51.250;-1.118;2022-11-18T15:43:13;99167.88;;;16.95
70668;BMP280;58242;51.250;-1.118;2022-11-18T15:45:38;99172.50;;;16.91